Time;durP1;ratioP1;P1;durP2;ratioP2;P2;SDS_P1;SDS_P2;PMS_P1;PMS_P2;Temp;Humidity;BMP_temperature;BMP_pressure;BME280_temperature;BME280_humidity;BME280_pressure;Samples;Min_cycle;Max_cycle;Signal;HPM_P1;HPM_P2
2023/07/19 00:01:14;;;;;;;73.70;49.78;;;;;;;24.46;51.25;93198.38;5047640;28;20413;-91
2023/07/19 00:03:39;;;;;;;69.68;47.58;;;;;;;24.48;51.14;93209.59;5049505;28;20494;-92
2023/07/19 00:06:05;;;;;;;69.97;48.55;;;;;;;24.47;51.15;93213.66;5031084;28;20407;-91
2023/07/19 00:08:31;;;;;;;67.88;45.97;;;;;;;24.47;51.51;93214.38;5049190;28;20122;-92
2023/07/19 00:10:57;;;;;;;70.88;48.88;;;;;;;24.47;51.20;93216.41;5048261;28;20075;-91
2023/07/19 00:13:23;;;;;;;67.07;46.30;;;;;;;24.47;51.05;93208.84;5028071;28;20041;-92
2023/07/19 00:15:48;;;;;;;58.08;43.75;;;;;;;24.46;51.21;93212.94;5058668;28;20045;-91
2023/07/19 00:18:14;;;;;;;63.97;45.35;;;;;;;24.47;51.14;93213.66;5032037;28;20343;-92
2023/07/19 00:20:39;;;;;;;71.22;47.13;;;;;;;24.46;51.38;93210.19;5031933;28;20052;-91
2023/07/19 00:23:05;;;;;;;66.57;47.20;;;;;;;24.45;51.26;93208.72;5050700;28;20090;-91
2023/07/19 00:25:30;;;;;;;63.83;44.95;;;;;;;24.44;51.09;93207.22;5032583;28;20045;-91
2023/07/19 00:27:55;;;;;;;68.63;48.03;;;;;;;24.45;51.21;93200.41;5015629;28;20103;-90
2023/07/19 00:30:21;;;;;;;66.70;47.30;;;;;;;24.44;51.26;93212.75;5032017;28;20056;-91
2023/07/19 00:32:46;;;;;;;62.42;45.80;;;;;;;24.43;51.11;93205.75;5052002;28;20580;-92
2023/07/19 00:35:12;;;;;;;62.75;45.95;;;;;;;24.42;51.29;93193.22;5051625;28;20383;-92
2023/07/19 00:37:38;;;;;;;68.25;48.05;;;;;;;24.43;51.46;93205.75;5035274;28;20466;-90
2023/07/19 00:40:04;;;;;;;62.72;47.28;;;;;;;24.43;51.26;93207.78;5033432;28;20361;-90
2023/07/19 00:42:30;;;;;;;61.47;45.72;;;;;;;24.41;51.20;93216.63;5035755;28;20047;-91
2023/07/19 00:44:56;;;;;;;66.50;45.13;;;;;;;24.42;51.36;93209.81;5048589;28;20036;-90
2023/07/19 00:47:23;;;;;;;60.47;44.90;;;;;;;24.44;51.38;93215.53;5068445;28;20037;-91
2023/07/19 00:49:48;;;;;;;65.85;45.83;;;;;;;24.43;51.24;93216.81;5051617;28;20028;-90
2023/07/19 00:52:14;;;;;;;59.60;43.80;;;;;;;24.43;51.07;93213.31;5046171;28;20051;-92
2023/07/19 00:54:39;;;;;;;58.40;42.67;;;;;;;24.43;51.22;93216.06;5052478;28;20131;-91
2023/07/19 00:57:05;;;;;;;60.53;42.55;;;;;;;24.43;51.32;93213.31;5048527;28;20037;-92
2023/07/19 00:59:31;;;;;;;61.72;42.50;;;;;;;24.43;51.41;93199.50;5032288;28;20040;-92
2023/07/19 01:01:56;;;;;;;57.63;41.67;;;;;;;24.43;51.23;93193.97;5034289;28;20039;-92
2023/07/19 01:04:24;;;;;;;61.17;42.40;;;;;;;24.43;51.30;93185.69;5067837;28;20040;-91
2023/07/19 01:06:49;;;;;;;59.83;41.80;;;;;;;24.41;51.33;93186.22;5051834;28;20116;-92
2023/07/19 01:09:15;;;;;;;59.00;41.85;;;;;;;24.41;51.33;93200.06;5034150;28;20040;-92
2023/07/19 01:11:41;;;;;;;57.33;41.40;;;;;;;24.41;51.27;93191.75;5052022;28;20040;-91
2023/07/19 01:14:07;;;;;;;56.97;40.40;;;;;;;24.41;51.23;93193.78;5050475;28;20033;-90
2023/07/19 01:16:33;;;;;;;56.20;39.58;;;;;;;24.41;51.25;93188.25;5048331;28;20037;-91
2023/07/19 01:18:58;;;;;;;57.95;41.53;;;;;;;24.39;51.30;93183.28;5031229;28;20296;-90
2023/07/19 01:21:24;;;;;;;56.80;41.13;;;;;;;24.40;51.47;93189.56;5035177;28;20394;-91
2023/07/19 01:23:50;;;;;;;56.05;40.25;;;;;;;24.40;51.22;93197.84;5051336;28;20032;-90
2023/07/19 01:26:16;;;;;;;58.03;39.88;;;;;;;24.39;51.18;93194.34;5031096;28;20041;-92
2023/07/19 01:28:41;;;;;;;53.60;40.55;;;;;;;24.40;51.37;93184.75;5014817;28;20044;-92
2023/07/19 01:31:09;;;;;;;54.58;39.42;;;;;;;24.40;51.22;93187.53;5029375;28;20572;-90
2023/07/19 01:33:34;;;;;;;52.92;39.17;;;;;;;24.39;51.32;93188.06;5052006;28;20131;-91
2023/07/19 01:36:00;;;;;;;54.30;39.47;;;;;;;24.40;51.28;93189.56;5051248;28;20051;-91
2023/07/19 01:38:25;;;;;;;52.00;38.58;;;;;;;24.40;51.77;93192.31;5050139;28;20501;-91
2023/07/19 01:40:50;;;;;;;53.03;39.80;;;;;;;24.40;51.28;93189.56;5051153;28;20051;-92
2023/07/19 01:43:16;;;;;;;57.38;38.30;;;;;;;24.39;51.24;93188.81;5050924;28;20051;-91
2023/07/19 01:45:42;;;;;;;55.45;38.70;;;;;;;24.39;51.00;93183.28;5034560;28;20050;-91
2023/07/19 01:48:08;;;;;;;51.58;36.88;;;;;;;24.39;51.22;93180.53;5050601;28;20048;-91
2023/07/19 01:50:33;;;;;;;54.88;37.50;;;;;;;24.38;51.31;93186.59;5046184;28;20427;-90
2023/07/19 01:52:59;;;;;;;55.30;36.88;;;;;;;24.38;51.42;93186.59;5050542;28;20052;-93
2023/07/19 01:55:24;;;;;;;54.17;37.20;;;;;;;24.38;51.37;93168.00;5030556;28;20048;-91
2023/07/19 01:57:50;;;;;;;54.10;37.33;;;;;;;24.37;51.39;93158.25;5030719;28;20110;-92
2023/07/19 02:00:16;;;;;;;54.30;37.60;;;;;;;24.38;51.23;93161.75;5047759;28;20040;-91
2023/07/19 02:02:41;;;;;;;49.63;35.53;;;;;;;24.37;51.31;93166.53;5064582;28;20047;-92
2023/07/19 02:05:07;;;;;;;51.38;36.20;;;;;;;24.37;51.38;93166.53;5051251;28;20072;-92
2023/07/19 02:07:33;;;;;;;52.15;36.45;;;;;;;24.36;51.26;93176.09;5067089;28;20040;-92
2023/07/19 02:09:58;;;;;;;50.25;37.80;;;;;;;24.36;51.30;93172.59;5030491;28;20432;-91
2023/07/19 02:12:23;;;;;;;48.15;34.25;;;;;;;24.36;51.58;93158.78;5045645;28;20033;-92
2023/07/19 02:14:49;;;;;;;50.85;36.05;;;;;;;24.34;51.39;93156.59;5030930;28;20387;-91
2023/07/19 02:17:14;;;;;;;52.03;36.20;;;;;;;24.34;51.43;93169.66;5038134;28;20048;-91
2023/07/19 02:19:40;;;;;;;48.65;34.28;;;;;;;24.35;51.38;93182.19;5051309;28;20032;-91
2023/07/19 02:22:05;;;;;;;46.78;33.92;;;;;;;24.35;51.25;93173.91;5033549;28;20498;-92
2023/07/19 02:24:31;;;;;;;47.80;34.60;;;;;;;24.36;51.50;93180.91;5033268;28;20062;-92
2023/07/19 02:26:56;;;;;;;48.13;34.17;;;;;;;24.35;51.50;93182.19;5040945;28;20048;-90
2023/07/19 02:29:22;;;;;;;47.88;33.65;;;;;;;24.34;51.51;93178.69;5049603;28;20051;-92
2023/07/19 02:31:48;;;;;;;43.72;33.20;;;;;;;24.35;51.45;93190.47;5029379;28;20073;-91
2023/07/19 02:34:18;;;;;;;49.50;33.25;;;;;;;24.35;51.44;93185.69;5044444;28;20055;-91
2023/07/19 02:36:43;;;;;;;47.15;33.78;;;;;;;24.35;51.31;93185.69;5049134;28;20481;-91
2023/07/19 02:39:09;;;;;;;46.80;33.85;;;;;;;24.35;51.49;93190.47;5015265;28;20037;-91
2023/07/19 02:41:34;;;;;;;45.00;33.33;;;;;;;24.35;51.20;93196.75;5050298;28;20055;-90
2023/07/19 02:44:00;;;;;;;43.75;30.83;;;;;;;24.35;51.21;93193.25;5049926;28;20050;-91
2023/07/19 02:46:25;;;;;;;47.05;33.15;;;;;;;24.34;51.29;93200.78;5049006;28;20354;-91
2023/07/19 02:48:51;;;;;;;43.13;32.03;;;;;;;24.33;51.45;93193.06;5032839;28;20482;-90
2023/07/19 02:51:16;;;;;;;45.92;32.33;;;;;;;24.34;51.57;93186.97;5032850;28;20094;-93
2023/07/19 02:53:41;;;;;;;40.30;30.38;;;;;;;24.33;51.29;93193.78;5047820;28;20111;-91
2023/07/19 02:56:07;;;;;;;40.22;32.42;;;;;;;24.33;51.38;93196.56;5049644;28;20044;-92
2023/07/19 02:58:33;;;;;;;45.47;32.28;;;;;;;24.33;51.39;93198.59;5033304;28;20033;-91
2023/07/19 03:00:59;;;;;;;46.70;32.28;;;;;;;24.33;51.62;93206.88;5048859;28;20161;-93
2023/07/19 03:03:24;;;;;;;44.50;30.33;;;;;;;24.34;51.46;93195.25;5032405;28;20483;-91
2023/07/19 03:05:49;;;;;;;43.22;30.40;;;;;;;24.33;51.40;93198.59;5033100;28;20086;-91
2023/07/19 03:08:15;;;;;;;46.03;32.05;;;;;;;24.34;51.56;93195.25;5048872;28;20071;-93
2023/07/19 03:10:40;;;;;;;43.95;31.15;;;;;;;24.32;51.39;93206.13;5049713;28;20094;-92
2023/07/19 03:13:06;;;;;;;41.00;29.90;;;;;;;24.32;51.49;93191.59;5048978;28;20048;-91
2023/07/19 03:15:33;;;;;;;40.28;30.75;;;;;;;24.32;51.54;93188.81;5049827;28;20041;-92
2023/07/19 03:18:02;;;;;;;41.22;29.95;;;;;;;24.32;51.57;93191.59;5049198;28;20072;-90
2023/07/19 03:20:27;;;;;;;44.17;30.10;;;;;;;24.32;51.40;93200.59;5052451;28;20573;-91
2023/07/19 03:22:54;;;;;;;26.73;19.58;;;;;;;24.43;50.77;93196.72;5043572;28;20040;-89
2023/07/19 03:25:22;;;;;;;26.30;16.17;;;;;;;24.08;51.54;93187.34;5037573;28;20044;-90
2023/07/19 03:27:47;;;;;;;22.90;14.70;;;;;;;24.08;51.35;93182.56;5052841;28;20108;-91
2023/07/19 03:30:14;;;;;;;21.92;16.15;;;;;;;23.98;51.46;93186.44;5068742;28;20040;-89
2023/07/19 03:32:39;;;;;;;30.95;22.17;;;;;;;23.78;51.78;93196.38;5034013;28;20535;-91
2023/07/19 03:35:05;;;;;;;125.10;111.25;;;;;;;23.81;52.30;93200.81;5025226;28;20040;-91
2023/07/19 03:37:33;;;;;;;108.45;54.80;;;;;;;23.75;52.23;93203.75;5053399;28;20066;-91
2023/07/19 03:40:04;;;;;;;30.70;20.25;;;;;;;23.80;52.09;93199.34;5028120;28;20056;-90
2023/07/19 03:42:29;;;;;;;22.05;13.02;;;;;;;23.78;52.05;93183.31;4990059;28;20745;-90
2023/07/19 03:44:55;;;;;;;20.95;12.10;;;;;;;23.73;52.32;93195.28;4997205;28;20195;-93
2023/07/19 03:47:20;;;;;;;24.95;13.70;;;;;;;23.67;52.36;93191.94;4996767;28;20095;-93
2023/07/19 03:49:46;;;;;;;16.50;11.68;;;;;;;23.55;52.35;93197.09;4995686;28;20367;-93
2023/07/19 03:52:11;;;;;;;24.08;10.52;;;;;;;23.40;52.78;93190.78;4977675;28;20219;-91
2023/07/19 03:54:37;;;;;;;16.10;10.27;;;;;;;23.35;52.78;93186.19;5017521;28;20045;-91
2023/07/19 03:57:03;;;;;;;29.25;9.98;;;;;;;23.31;52.93;93174.78;5018662;28;20041;-92
2023/07/19 03:59:31;;;;;;;47.58;14.15;;;;;;;23.29;52.77;93174.59;5005745;28;20048;-94
2023/07/19 04:01:58;;;;;;;38.65;19.65;;;;;;;23.20;53.02;93182.09;5000883;28;20037;-93
2023/07/19 04:04:23;;;;;;;58.90;20.50;;;;;;;23.22;53.03;93174.00;4996648;28;20505;-91
2023/07/19 04:06:48;;;;;;;65.57;19.63;;;;;;;23.22;52.89;93187.81;5019132;28;20045;-91
2023/07/19 04:09:20;;;;;;;48.33;16.25;;;;;;;23.19;53.21;93183.38;5001679;28;20037;-89
2023/07/19 04:11:45;;;;;;;38.75;12.63;;;;;;;23.15;53.26;93188.53;5062637;28;20063;-90
2023/07/19 04:14:10;;;;;;;35.42;11.63;;;;;;;23.18;53.35;93195.69;5036675;28;20033;-93
2023/07/19 04:16:41;;;;;;;29.08;10.60;;;;;;;23.17;53.39;93210.03;5057464;28;20043;-91
2023/07/19 04:19:07;;;;;;;20.85;12.25;;;;;;;23.09;53.83;93212.78;5029636;28;20076;-92
2023/07/19 04:21:33;;;;;;;21.38;10.10;;;;;;;23.07;53.70;93209.09;5015463;28;20047;-91
2023/07/19 04:24:02;;;;;;;24.80;10.70;;;;;;;23.12;53.91;93214.44;5019400;28;20061;-93
2023/07/19 04:26:27;;;;;;;25.63;11.68;;;;;;;23.06;53.96;93213.13;5024522;28;20079;-90
2023/07/19 04:28:53;;;;;;;31.13;13.65;;;;;;;23.09;53.81;93206.53;4997814;28;20046;-91
2023/07/19 04:31:19;;;;;;;23.58;12.15;;;;;;;23.04;54.06;93216.44;4996926;28;20457;-92
2023/07/19 04:33:45;;;;;;;22.73;10.65;;;;;;;23.05;54.00;93208.91;5040576;28;20527;-91
2023/07/19 04:36:12;;;;;;;36.95;15.20;;;;;;;23.03;54.03;93194.91;5034062;28;20053;-92
2023/07/19 04:38:45;;;;;;;45.38;18.40;;;;;;;23.07;54.00;93200.81;5010907;28;20033;-92
2023/07/19 04:41:11;;;;;;;37.25;16.30;;;;;;;23.03;54.09;93201.16;5025514;28;20041;-91
2023/07/19 04:43:36;;;;;;;39.40;12.73;;;;;;;23.04;53.97;93196.41;5011127;28;20056;-92
2023/07/19 04:46:01;;;;;;;39.67;17.75;;;;;;;23.08;54.10;93194.03;4999229;28;20052;-92
2023/07/19 04:48:27;;;;;;;40.17;18.50;;;;;;;23.09;54.09;93190.72;4996548;28;20459;-91
2023/07/19 04:50:54;;;;;;;35.33;16.48;;;;;;;23.13;54.04;93184.84;5045261;28;20390;-91
2023/07/19 04:53:21;;;;;;;34.28;16.00;;;;;;;23.15;54.18;93183.03;5054395;28;20041;-92
2023/07/19 04:55:46;;;;;;;45.03;21.27;;;;;;;23.06;54.20;93180.78;5059921;28;20040;-92
2023/07/19 04:58:12;;;;;;;50.03;19.73;;;;;;;23.07;54.60;93187.03;5057719;28;20501;-91
2023/07/19 05:00:45;;;;;;;43.42;19.08;;;;;;;23.12;54.48;93166.84;5057815;28;20055;-90
2023/07/19 05:03:11;;;;;;;43.95;17.50;;;;;;;23.13;54.31;93184.84;5040953;28;20048;-90
2023/07/19 05:05:37;;;;;;;36.88;14.35;;;;;;;23.15;54.40;93185.78;5039589;28;20036;-91
2023/07/19 05:08:05;;;;;;;35.30;21.67;;;;;;;23.15;54.42;93190.56;5058924;28;20045;-88
2023/07/19 05:10:36;;;;;;;36.03;21.05;;;;;;;23.18;54.33;93187.41;5058935;28;20036;-92
2023/07/19 05:13:01;;;;;;;;;;;;;;;23.10;54.31;93205.25;5041429;28;20529;-92
2023/07/19 05:15:27;;;;;;;29.30;12.57;;;;;;;23.08;54.73;93216.06;5051375;28;19924;-93
2023/07/19 05:17:52;;;;;;;30.63;14.52;;;;;;;23.04;54.84;93210.19;5040355;28;20048;-91
2023/07/19 05:20:17;;;;;;;43.38;15.50;;;;;;;23.09;54.65;93217.56;5049012;28;20036;-91
2023/07/19 05:22:43;;;;;;;32.30;15.68;;;;;;;23.08;54.76;93225.09;5030768;28;20159;-92
2023/07/19 05:25:09;;;;;;;34.25;18.45;;;;;;;23.08;54.79;93225.09;5042054;28;20036;-92
2023/07/19 05:27:35;;;;;;;38.05;20.02;;;;;;;23.09;54.87;93226.56;5046494;28;20139;-92
2023/07/19 05:30:04;;;;;;;51.15;30.27;;;;;;;23.11;54.85;93220.50;5061415;28;20048;-91
2023/07/19 05:32:29;;;;;;;52.85;28.45;;;;;;;23.05;54.99;93225.44;5039303;28;20051;-93
2023/07/19 05:34:56;;;;;;;38.70;25.88;;;;;;;23.00;55.26;93229.81;5041484;28;20415;-92
2023/07/19 05:37:21;;;;;;;42.40;23.42;;;;;;;23.09;54.99;93234.09;5038102;28;20044;-88
2023/07/19 05:39:50;;;;;;;37.13;17.38;;;;;;;23.10;55.12;93238.34;5044306;28;20041;-93
2023/07/19 05:42:17;;;;;;;29.08;15.00;;;;;;;23.13;55.19;93248.28;5061053;28;20075;-90
2023/07/19 05:44:43;;;;;;;27.35;15.70;;;;;;;23.09;55.28;93239.63;5056602;28;20029;-93
2023/07/19 05:47:10;;;;;;;22.40;14.57;;;;;;;23.08;55.28;93252.66;5049535;28;20048;-92
2023/07/19 05:49:35;;;;;;;33.67;14.50;;;;;;;23.16;55.16;93266.50;5058654;28;20030;-92
2023/07/19 05:52:01;;;;;;;33.72;18.63;;;;;;;23.12;55.13;93277.13;5057927;28;20044;-90
2023/07/19 05:54:26;;;;;;;29.70;15.13;;;;;;;23.11;55.26;93270.13;5039296;28;20501;-91
2023/07/19 05:56:52;;;;;;;26.10;14.15;;;;;;;23.13;55.16;93262.06;5042763;28;20048;-90
2023/07/19 05:59:20;;;;;;;23.33;12.13;;;;;;;23.16;55.10;93274.75;5065049;28;20045;-90
2023/07/19 06:01:45;;;;;;;33.95;16.70;;;;;;;23.18;55.47;93272.91;5048761;28;20045;-90
2023/07/19 06:04:13;;;;;;;30.02;14.85;;;;;;;23.29;54.83;93276.63;5043792;28;20041;-90
2023/07/19 06:06:40;;;;;;;27.55;12.82;;;;;;;23.21;55.29;93271.09;5039968;28;20048;-91
2023/07/19 06:09:08;;;;;;;18.85;10.32;;;;;;;23.30;54.94;93259.53;5074366;28;20517;-91
2023/07/19 06:11:34;;;;;;;22.25;10.80;;;;;;;23.27;54.88;93268.16;5057134;28;20071;-91
2023/07/19 06:13:59;;;;;;;26.48;14.93;;;;;;;23.37;54.85;93269.13;5056504;28;20037;-92
2023/07/19 06:16:25;;;;;;;25.00;15.55;;;;;;;23.32;54.50;93262.50;5035493;28;20056;-90
2023/07/19 06:18:51;;;;;;;17.85;12.30;;;;;;;23.37;54.62;93267.13;5034492;28;20048;-92
2023/07/19 06:21:18;;;;;;;19.63;10.20;;;;;;;23.33;54.36;93269.50;5033414;28;20033;-91
2023/07/19 06:23:43;;;;;;;15.48;9.07;;;;;;;23.41;54.26;93261.97;5027697;28;20037;-89
2023/07/19 06:26:10;;;;;;;15.43;8.65;;;;;;;23.43;54.43;93256.63;5047306;28;20055;-89
2023/07/19 06:28:35;;;;;;;14.05;7.63;;;;;;;23.49;54.09;93256.47;5029743;28;20556;-88
2023/07/19 06:31:02;;;;;;;24.63;9.48;;;;;;;23.42;54.12;93260.66;5053008;28;20048;-89
2023/07/19 06:33:28;;;;;;;33.25;10.18;;;;;;;23.42;54.12;93246.13;5033731;28;20041;-87
2023/07/19 06:35:54;;;;;;;33.47;13.30;;;;;;;23.44;54.11;93252.59;5050776;28;20094;-91
2023/07/19 06:38:19;;;;;;;34.40;11.75;;;;;;;23.45;54.02;93245.78;5035917;28;20423;-91
2023/07/19 06:40:46;;;;;;;21.23;10.68;;;;;;;23.45;54.18;93245.78;5035215;28;20051;-91
2023/07/19 06:43:11;;;;;;;26.65;12.65;;;;;;;23.46;54.38;93252.03;5036341;28;20040;-90
2023/07/19 06:45:37;;;;;;;32.17;15.40;;;;;;;23.47;54.44;93248.75;5037595;28;20083;-91
2023/07/19 06:48:03;;;;;;;38.15;16.95;;;;;;;23.51;54.55;93223.56;5045737;28;20086;-91
2023/07/19 06:50:29;;;;;;;52.17;26.27;;;;;;;23.51;54.29;93221.53;5035172;28;20070;-92
2023/07/19 06:52:55;;;;;;;40.85;20.98;;;;;;;23.46;53.95;93227.22;5054117;28;20048;-92
2023/07/19 06:55:21;;;;;;;30.20;15.02;;;;;;;23.55;53.71;93226.72;5055181;28;20043;-92
2023/07/19 06:57:46;;;;;;;37.08;14.65;;;;;;;23.54;53.54;93228.00;5039434;28;20036;-90
2023/07/19 07:00:12;;;;;;;29.85;14.63;;;;;;;23.57;53.29;93235.94;5046343;28;20071;-92
2023/07/19 07:02:38;;;;;;;41.97;25.70;;;;;;;23.60;53.04;93233.34;5038688;28;20047;-92
2023/07/19 07:05:03;;;;;;;55.72;29.02;;;;;;;23.61;53.06;93232.03;5033445;28;20517;-91
2023/07/19 07:07:29;;;;;;;45.50;25.67;;;;;;;23.51;53.14;93229.81;5054752;28;20120;-91
2023/07/19 07:09:57;;;;;;;58.92;29.70;;;;;;;23.50;53.00;93227.59;5054511;28;20044;-89
2023/07/19 07:12:23;;;;;;;71.55;39.30;;;;;;;23.50;52.97;93222.06;5050957;28;20045;-92
2023/07/19 07:14:49;;;;;;;85.95;35.67;;;;;;;23.62;52.80;93223.22;5037179;28;20063;-92
2023/07/19 07:17:16;;;;;;;73.82;31.88;;;;;;;23.65;52.63;93230.41;5049443;28;20097;-92
2023/07/19 07:19:41;;;;;;;39.70;20.55;;;;;;;23.58;52.86;93233.91;5056756;28;20546;-92
2023/07/19 07:22:07;;;;;;;65.95;32.28;;;;;;;23.56;52.77;93231.69;5048313;28;20041;-92
2023/07/19 07:24:34;;;;;;;50.03;25.95;;;;;;;23.56;52.89;93222.69;5041456;28;20048;-92
2023/07/19 07:27:00;;;;;;;55.28;29.60;;;;;;;23.56;52.74;93220.66;5054362;28;20341;-92
2023/07/19 07:29:25;;;;;;;45.13;22.80;;;;;;;23.60;52.65;93225.78;5050188;28;20049;-90
2023/07/19 07:31:51;;;;;;;37.85;21.20;;;;;;;23.61;52.89;93221.75;5049643;28;20029;-89
2023/07/19 07:34:16;;;;;;;27.38;16.23;;;;;;;23.66;52.62;93228.38;5052625;28;20490;-91
2023/07/19 07:36:42;;;;;;;24.35;12.75;;;;;;;23.65;53.00;93240.69;5051497;28;20056;-91
2023/07/19 07:39:08;;;;;;;26.70;13.55;;;;;;;23.65;53.08;93230.41;5054721;28;20054;-92
2023/07/19 07:41:34;;;;;;;56.90;18.38;;;;;;;23.64;53.37;93226.16;5034432;28;20040;-91
2023/07/19 07:44:01;;;;;;;35.50;17.30;;;;;;;23.63;53.38;93237.75;5053561;28;20033;-93
2023/07/19 07:46:29;;;;;;;30.48;13.73;;;;;;;23.61;53.44;93241.06;5035403;28;20089;-90
2023/07/19 07:48:59;;;;;;;29.30;19.15;;;;;;;23.46;53.93;93246.53;5058120;28;20041;-90
2023/07/19 07:51:30;;;;;;;30.55;14.63;;;;;;;23.43;53.92;93264.16;5053541;28;20066;-92
2023/07/19 07:53:56;;;;;;;33.20;12.02;;;;;;;23.46;53.88;93250.03;5051381;28;20095;-92
2023/07/19 07:56:23;;;;;;;16.05;9.18;;;;;;;23.43;54.13;93266.94;5052398;28;20045;-92
2023/07/19 07:58:48;;;;;;;16.30;8.30;;;;;;;23.39;53.96;93285.84;5045817;28;20037;-92
2023/07/19 08:01:14;;;;;;;15.13;7.75;;;;;;;23.43;54.31;93286.97;5035266;28;20403;-92
2023/07/19 08:03:40;;;;;;;12.88;7.00;;;;;;;23.44;54.61;93273.91;5034513;28;20063;-90
2023/07/19 08:06:05;;;;;;;14.25;7.45;;;;;;;23.32;55.17;93270.78;5052054;28;20029;-92
2023/07/19 08:08:31;;;;;;;18.50;7.15;;;;;;;23.36;55.59;93271.16;5053526;28;20041;-92
2023/07/19 08:10:57;;;;;;;21.17;8.20;;;;;;;23.37;55.83;93277.41;5051888;28;20486;-91
2023/07/19 08:13:22;;;;;;;15.05;8.15;;;;;;;23.40;56.61;93279.06;5039137;28;20048;-92
2023/07/19 08:15:48;;;;;;;19.23;9.45;;;;;;;23.39;57.45;93278.31;5031358;28;20151;-89
2023/07/19 08:18:13;;;;;;;50.47;18.35;;;;;;;23.38;57.76;93267.84;5031350;28;20049;-91
2023/07/19 08:20:39;;;;;;;51.72;26.65;;;;;;;23.36;58.31;93256.63;5009875;28;20055;-93
2023/07/19 08:23:05;;;;;;;60.13;32.95;;;;;;;23.36;58.28;93256.63;5015405;28;20042;-91
2023/07/19 08:25:30;;;;;;;76.45;39.75;;;;;;;23.30;58.68;93259.53;5005366;28;20124;-93
2023/07/19 08:27:55;;;;;;;79.35;40.70;;;;;;;23.40;58.95;93257.72;5028511;28;20041;-91
2023/07/19 08:30:23;;;;;;;96.38;50.50;;;;;;;23.46;59.14;93229.97;5000095;28;20060;-92
2023/07/19 08:32:48;;;;;;;82.68;43.65;;;;;;;23.46;59.29;93229.97;5002318;28;20522;-91
2023/07/19 08:35:14;;;;;;;119.63;58.83;;;;;;;23.47;59.17;93237.69;5031196;28;20059;-91
2023/07/19 08:37:43;;;;;;;157.65;77.43;;;;;;;23.49;59.24;93246.16;5000240;28;20188;-91
2023/07/19 08:40:12;;;;;;;210.43;93.70;;;;;;;23.43;59.67;93242.09;5015448;28;20056;-91
2023/07/19 08:42:37;;;;;;;186.55;84.75;;;;;;;23.48;59.66;93241.94;5000388;28;20099;-91
2023/07/19 08:45:07;;;;;;;143.35;64.68;;;;;;;23.50;59.31;93242.13;5035488;28;20049;-90
2023/07/19 08:47:34;;;;;;;112.18;47.92;;;;;;;23.51;59.16;93218.78;5035578;28;20480;-88
2023/07/19 08:50:00;;;;;;;93.75;45.38;;;;;;;23.53;58.92;93212.72;5040773;28;20041;-87
2023/07/19 08:52:27;;;;;;;95.05;39.78;;;;;;;23.58;58.72;93220.84;5042117;28;20036;-90
2023/07/19 08:54:54;;;;;;;78.35;33.85;;;;;;;23.61;58.62;93218.97;5058508;28;20037;-88
2023/07/19 08:57:22;;;;;;;77.53;30.05;;;;;;;23.66;58.17;93222.84;5055812;28;20040;-90
2023/07/19 08:59:48;;;;;;;67.57;25.77;;;;;;;23.57;58.57;93230.41;5037691;28;20040;-92
2023/07/19 09:02:14;;;;;;;56.35;17.58;;;;;;;23.60;58.44;93234.06;5045027;28;20514;-91
2023/07/19 09:04:39;;;;;;;35.63;13.70;;;;;;;23.53;58.30;93232.78;5055509;28;20045;-92
2023/07/19 09:07:05;;;;;;;34.03;13.88;;;;;;;23.51;58.33;93221.53;5027950;28;20036;-91
2023/07/19 09:09:31;;;;;;;27.75;11.90;;;;;;;23.50;58.11;93211.78;5021794;28;20045;-91
2023/07/19 09:11:57;;;;;;;38.60;15.10;;;;;;;23.54;57.96;93216.97;5040008;28;20057;-91
2023/07/19 09:14:35;;;;;;;31.10;15.32;;;;;;;23.60;57.99;93208.53;5054553;28;20118;-91
2023/07/19 09:17:02;;;;;;;33.78;15.82;;;;;;;23.68;58.21;93204.47;5036895;28;20172;-90
2023/07/19 09:19:31;;;;;;;40.92;16.80;;;;;;;23.69;58.17;93203.19;5050809;28;20067;-92
2023/07/19 09:22:02;;;;;;;38.10;15.40;;;;;;;23.64;58.38;93212.38;5041186;28;20525;-92
2023/07/19 09:24:28;;;;;;;33.63;13.63;;;;;;;23.62;57.75;93214.19;5055163;28;20040;-93
2023/07/19 09:26:57;;;;;;;26.10;11.38;;;;;;;23.58;57.46;93207.03;5040658;28;20098;-92
2023/07/19 09:29:23;;;;;;;35.25;11.63;;;;;;;23.60;57.13;93203.00;5054787;28;20040;-93
2023/07/19 09:32:00;;;;;;;33.90;15.25;;;;;;;23.63;57.22;93210.16;5044029;28;20045;-94
2023/07/19 09:34:38;;;;;;;35.85;13.07;;;;;;;23.55;57.30;93199.13;5051902;28;20051;-93
2023/07/19 09:37:04;;;;;;;37.05;16.00;;;;;;;23.50;57.58;93203.50;5043128;28;20128;-90
2023/07/19 09:39:30;;;;;;;41.17;18.80;;;;;;;23.49;57.70;93198.53;5041434;28;20129;-91
2023/07/19 09:41:57;;;;;;;38.42;12.05;;;;;;;23.44;57.54;93213.97;5057578;28;20132;-92
2023/07/19 09:44:22;;;;;;;30.17;11.35;;;;;;;23.47;57.38;93201.84;5041824;28;20040;-93
2023/07/19 09:46:49;;;;;;;34.53;13.07;;;;;;;23.45;57.79;93204.41;5043034;28;20044;-92
2023/07/19 09:49:14;;;;;;;37.22;13.02;;;;;;;23.48;57.66;93206.06;5031918;28;20029;-93
2023/07/19 09:51:42;;;;;;;29.90;12.73;;;;;;;23.43;57.94;93195.94;5035657;28;20042;-89
2023/07/19 09:54:11;;;;;;;31.48;12.48;;;;;;;23.45;57.84;93200.91;5044800;28;20066;-92
2023/07/19 09:56:45;;;;;;;31.05;13.50;;;;;;;23.43;58.32;93204.22;5033334;28;20047;-92
2023/07/19 09:59:24;;;;;;;22.25;10.15;;;;;;;23.46;58.20;93208.63;5055129;28;20120;-92
2023/07/19 10:01:49;;;;;;;32.67;10.68;;;;;;;23.48;58.52;93197.78;5052941;28;20561;-91
2023/07/19 10:04:27;;;;;;;21.60;9.13;;;;;;;23.43;58.47;93197.97;5053601;28;20051;-94
2023/07/19 10:07:03;;;;;;;24.40;9.23;;;;;;;23.48;58.46;93191.53;5043152;28;20561;-91
2023/07/19 10:09:29;;;;;;;15.68;7.95;;;;;;;23.43;57.86;93195.19;5066282;28;20053;-91
2023/07/19 10:12:00;;;;;;;17.50;8.90;;;;;;;23.47;57.92;93201.09;5064736;28;20105;-89
2023/07/19 10:14:27;;;;;;;13.52;7.15;;;;;;;23.40;57.81;93191.50;5060188;28;20044;-92
2023/07/19 10:16:59;;;;;;;12.52;6.15;;;;;;;23.38;57.75;93193.38;5040399;28;20036;-91
2023/07/19 10:19:26;;;;;;;13.13;6.95;;;;;;;23.45;57.84;93195.38;5056760;28;20052;-91
2023/07/19 10:22:05;;;;;;;10.50;5.72;;;;;;;23.41;57.66;93200.53;5035773;28;20284;-91
2023/07/19 10:24:33;;;;;;;17.05;10.55;;;;;;;23.45;57.80;93198.16;5035402;28;20044;-92
2023/07/19 10:27:05;;;;;;;16.58;10.68;;;;;;;23.51;57.69;93198.72;5050154;28;20041;-90
2023/07/19 10:29:39;;;;;;;19.50;9.00;;;;;;;23.49;58.19;93193.00;5047242;28;20051;-92
2023/07/19 10:32:06;;;;;;;15.50;7.47;;;;;;;23.49;58.62;93193.00;5048791;28;20048;-92
2023/07/19 10:34:32;;;;;;;13.50;7.22;;;;;;;23.54;59.06;93192.13;5035260;28;20040;-90
2023/07/19 10:37:02;;;;;;;9.32;6.63;;;;;;;23.59;59.04;93188.47;5042135;28;20025;-90
2023/07/19 10:39:30;;;;;;;16.20;11.95;;;;;;;23.65;59.25;93180.72;5055341;28;20052;-92
2023/07/19 10:41:55;;;;;;;15.38;9.65;;;;;;;23.71;59.57;93180.56;5052800;28;20759;-92
2023/07/19 10:44:21;;;;;;;20.38;12.80;;;;;;;23.70;59.30;93184.59;5037157;28;20063;-90
2023/07/19 10:46:46;;;;;;;21.50;12.68;;;;;;;23.72;59.25;93174.47;5036996;28;20059;-90
2023/07/19 10:49:12;;;;;;;28.40;17.00;;;;;;;23.74;59.35;93173.94;5029373;28;20522;-88
2023/07/19 10:51:38;;;;;;;36.65;21.60;;;;;;;23.71;59.06;93161.97;5047690;28;20483;-90
2023/07/19 10:54:03;;;;;;;36.70;22.65;;;;;;;23.67;59.44;93158.09;5039385;28;20041;-89
2023/07/19 10:56:32;;;;;;;27.60;17.88;;;;;;;23.70;59.20;93146.69;5070128;28;20044;-90
2023/07/19 10:58:58;;;;;;;28.77;13.25;;;;;;;23.67;59.06;93156.06;5048866;28;20406;-90
2023/07/19 11:01:26;;;;;;;95.63;52.97;;;;;;;23.71;58.69;93156.44;5037761;28;20036;-91
2023/07/19 11:03:51;;;;;;;31.60;18.63;;;;;;;23.63;58.19;93152.19;5035567;28;20548;-91
2023/07/19 11:06:17;;;;;;;55.53;23.40;;;;;;;23.67;58.09;93139.50;5052632;28;20048;-91
2023/07/19 11:08:44;;;;;;;77.10;30.63;;;;;;;23.71;58.19;93141.91;5055104;28;20048;-92
2023/07/19 11:11:11;;;;;;;62.72;28.65;;;;;;;23.70;58.00;93151.47;5071495;28;20132;-90
2023/07/19 11:13:38;;;;;;;61.53;30.55;;;;;;;23.72;58.00;93148.91;5036124;28;20070;-92